sensor_id;sensor_type;location;lat;lon;timestamp;temperature;humidity
15355;DHT22;7777;52.254;9.618;2023-05-16T00:00:19;12.50;95.40
15355;DHT22;7777;52.254;9.618;2023-05-16T00:02:45;12.50;95.50
15355;DHT22;7777;52.254;9.618;2023-05-16T00:05:13;12.50;95.40
15355;DHT22;7777;52.254;9.618;2023-05-16T00:07:42;12.50;95.20
15355;DHT22;7777;52.254;9.618;2023-05-16T00:10:09;12.50;95.50
15355;DHT22;7777;52.254;9.618;2023-05-16T00:12:36;12.50;95.70
15355;DHT22;7777;52.254;9.618;2023-05-16T00:15:07;12.50;95.40
15355;DHT22;7777;52.254;9.618;2023-05-16T00:17:38;12.50;95.40
15355;DHT22;7777;52.254;9.618;2023-05-16T00:20:05;12.50;95.70
15355;DHT22;7777;52.254;9.618;2023-05-16T00:22:33;12.50;95.70
15355;DHT22;7777;52.254;9.618;2023-05-16T00:34:44;12.50;95.80
15355;DHT22;7777;52.254;9.618;2023-05-16T00:40:51;12.50;95.80
15355;DHT22;7777;52.254;9.618;2023-05-16T00:47:07;12.50;95.70
15355;DHT22;7777;52.254;9.618;2023-05-16T00:53:09;12.50;95.60
15355;DHT22;7777;52.254;9.618;2023-05-16T00:56:14;12.50;96.00
15355;DHT22;7777;52.254;9.618;2023-05-16T00:59:20;12.50;96.00
15355;DHT22;7777;52.254;9.618;2023-05-16T01:02:52;12.50;95.80
15355;DHT22;7777;52.254;9.618;2023-05-16T01:12:57;12.50;96.00
15355;DHT22;7777;52.254;9.618;2023-05-16T01:26:58;12.40;95.70
15355;DHT22;7777;52.254;9.618;2023-05-16T01:30:10;12.50;96.20
15355;DHT22;7777;52.254;9.618;2023-05-16T01:33:16;12.50;96.20
15355;DHT22;7777;52.254;9.618;2023-05-16T01:40:01;12.50;96.40
15355;DHT22;7777;52.254;9.618;2023-05-16T01:42:41;12.40;96.30
15355;DHT22;7777;52.254;9.618;2023-05-16T02:14:38;12.40;96.10
15355;DHT22;7777;52.254;9.618;2023-05-16T02:17:03;12.30;95.80
15355;DHT22;7777;52.254;9.618;2023-05-16T02:19:29;12.30;95.90
15355;DHT22;7777;52.254;9.618;2023-05-16T02:21:55;12.30;96.20
15355;DHT22;7777;52.254;9.618;2023-05-16T02:24:21;12.30;96.00
15355;DHT22;7777;52.254;9.618;2023-05-16T02:26:47;12.30;96.00
15355;DHT22;7777;52.254;9.618;2023-05-16T02:29:13;12.30;95.90
15355;DHT22;7777;52.254;9.618;2023-05-16T02:31:40;12.30;96.00
15355;DHT22;7777;52.254;9.618;2023-05-16T02:34:07;12.30;95.90
15355;DHT22;7777;52.254;9.618;2023-05-16T02:36:33;12.30;96.20
15355;DHT22;7777;52.254;9.618;2023-05-16T02:39:01;12.30;96.30
15355;DHT22;7777;52.254;9.618;2023-05-16T02:41:28;12.30;96.10
15355;DHT22;7777;52.254;9.618;2023-05-16T02:43:54;12.30;96.30
15355;DHT22;7777;52.254;9.618;2023-05-16T02:48:47;12.20;96.00
15355;DHT22;7777;52.254;9.618;2023-05-16T02:51:13;12.20;96.00
15355;DHT22;7777;52.254;9.618;2023-05-16T02:53:39;12.20;96.10
15355;DHT22;7777;52.254;9.618;2023-05-16T02:56:05;12.20;96.00
15355;DHT22;7777;52.254;9.618;2023-05-16T02:58:31;12.20;96.10
15355;DHT22;7777;52.254;9.618;2023-05-16T03:00:58;12.20;96.10
15355;DHT22;7777;52.254;9.618;2023-05-16T03:03:24;12.20;96.10
15355;DHT22;7777;52.254;9.618;2023-05-16T03:05:50;12.20;96.20
15355;DHT22;7777;52.254;9.618;2023-05-16T03:08:16;12.20;95.90
15355;DHT22;7777;52.254;9.618;2023-05-16T03:10:42;12.20;95.90
15355;DHT22;7777;52.254;9.618;2023-05-16T03:13:08;12.10;96.10
15355;DHT22;7777;52.254;9.618;2023-05-16T03:15:33;12.10;96.00
15355;DHT22;7777;52.254;9.618;2023-05-16T03:17:59;12.10;96.50
15355;DHT22;7777;52.254;9.618;2023-05-16T03:20:25;12.10;96.20
15355;DHT22;7777;52.254;9.618;2023-05-16T03:22:51;12.10;96.20
15355;DHT22;7777;52.254;9.618;2023-05-16T03:25:17;12.10;96.20
15355;DHT22;7777;52.254;9.618;2023-05-16T03:27:42;12.10;96.30
15355;DHT22;7777;52.254;9.618;2023-05-16T03:30:08;12.00;96.20
15355;DHT22;7777;52.254;9.618;2023-05-16T03:32:36;12.00;96.20
15355;DHT22;7777;52.254;9.618;2023-05-16T03:35:02;12.00;96.10
15355;DHT22;7777;52.254;9.618;2023-05-16T03:37:28;12.00;96.20
15355;DHT22;7777;52.254;9.618;2023-05-16T03:39:54;12.00;96.30
15355;DHT22;7777;52.254;9.618;2023-05-16T03:42:20;12.00;96.40
15355;DHT22;7777;52.254;9.618;2023-05-16T03:44:46;12.00;96.40
15355;DHT22;7777;52.254;9.618;2023-05-16T03:47:11;12.00;96.30
15355;DHT22;7777;52.254;9.618;2023-05-16T03:49:37;12.00;96.20
15355;DHT22;7777;52.254;9.618;2023-05-16T03:52:04;11.90;96.20
15355;DHT22;7777;52.254;9.618;2023-05-16T03:54:30;11.90;96.10
15355;DHT22;7777;52.254;9.618;2023-05-16T03:56:56;11.90;96.10
15355;DHT22;7777;52.254;9.618;2023-05-16T03:59:22;11.90;96.10
15355;DHT22;7777;52.254;9.618;2023-05-16T04:01:48;11.90;96.20
15355;DHT22;7777;52.254;9.618;2023-05-16T04:04:14;11.90;96.50
15355;DHT22;7777;52.254;9.618;2023-05-16T04:06:40;11.90;96.30
15355;DHT22;7777;52.254;9.618;2023-05-16T04:09:06;11.90;96.30
15355;DHT22;7777;52.254;9.618;2023-05-16T04:11:38;11.90;96.20
15355;DHT22;7777;52.254;9.618;2023-05-16T04:14:04;11.80;96.00
15355;DHT22;7777;52.254;9.618;2023-05-16T04:16:31;11.80;96.10
15355;DHT22;7777;52.254;9.618;2023-05-16T04:18:56;11.80;96.10
15355;DHT22;7777;52.254;9.618;2023-05-16T04:21:34;11.80;96.10
15355;DHT22;7777;52.254;9.618;2023-05-16T04:24:01;11.80;96.00
15355;DHT22;7777;52.254;9.618;2023-05-16T04:26:27;11.80;96.10
15355;DHT22;7777;52.254;9.618;2023-05-16T04:28:54;11.80;95.80
15355;DHT22;7777;52.254;9.618;2023-05-16T04:31:21;11.80;95.90
15355;DHT22;7777;52.254;9.618;2023-05-16T04:33:48;11.80;95.80
15355;DHT22;7777;52.254;9.618;2023-05-16T04:36:43;11.80;96.10
15355;DHT22;7777;52.254;9.618;2023-05-16T04:39:09;11.80;96.00
15355;DHT22;7777;52.254;9.618;2023-05-16T04:41:34;11.80;96.00
15355;DHT22;7777;52.254;9.618;2023-05-16T04:44:01;11.80;96.40
15355;DHT22;7777;52.254;9.618;2023-05-16T04:46:30;11.80;96.40
15355;DHT22;7777;52.254;9.618;2023-05-16T04:48:56;11.80;96.20
15355;DHT22;7777;52.254;9.618;2023-05-16T04:51:22;11.80;96.00
15355;DHT22;7777;52.254;9.618;2023-05-16T04:53:48;11.80;95.90
15355;DHT22;7777;52.254;9.618;2023-05-16T04:56:14;11.80;96.00
15355;DHT22;7777;52.254;9.618;2023-05-16T04:58:40;11.80;96.10
15355;DHT22;7777;52.254;9.618;2023-05-16T05:01:06;11.80;96.00
15355;DHT22;7777;52.254;9.618;2023-05-16T05:03:31;11.80;96.00
15355;DHT22;7777;52.254;9.618;2023-05-16T05:06:00;11.80;96.10
15355;DHT22;7777;52.254;9.618;2023-05-16T05:08:26;11.70;96.00
15355;DHT22;7777;52.254;9.618;2023-05-16T05:10:51;11.70;95.90
15355;DHT22;7777;52.254;9.618;2023-05-16T05:13:21;11.70;95.80
15355;DHT22;7777;52.254;9.618;2023-05-16T05:15:48;11.70;95.70
15355;DHT22;7777;52.254;9.618;2023-05-16T05:18:16;11.70;95.80
15355;DHT22;7777;52.254;9.618;2023-05-16T05:20:43;11.70;95.90
15355;DHT22;7777;52.254;9.618;2023-05-16T05:23:09;11.70;96.00
15355;DHT22;7777;52.254;9.618;2023-05-16T05:25:35;11.70;96.10
15355;DHT22;7777;52.254;9.618;2023-05-16T05:28:01;11.80;96.10
15355;DHT22;7777;52.254;9.618;2023-05-16T05:30:30;11.70;96.00
15355;DHT22;7777;52.254;9.618;2023-05-16T05:32:58;11.70;96.10
15355;DHT22;7777;52.254;9.618;2023-05-16T05:35:24;11.60;95.90
15355;DHT22;7777;52.254;9.618;2023-05-16T05:38:02;11.60;95.70
15355;DHT22;7777;52.254;9.618;2023-05-16T05:40:30;11.60;95.60
15355;DHT22;7777;52.254;9.618;2023-05-16T05:43:00;11.60;95.60
15355;DHT22;7777;52.254;9.618;2023-05-16T05:45:26;11.50;95.50
15355;DHT22;7777;52.254;9.618;2023-05-16T05:48:02;11.50;95.40
15355;DHT22;7777;52.254;9.618;2023-05-16T05:50:28;11.50;95.40
15355;DHT22;7777;52.254;9.618;2023-05-16T05:52:54;11.50;95.40
15355;DHT22;7777;52.254;9.618;2023-05-16T05:55:20;11.50;95.30
15355;DHT22;7777;52.254;9.618;2023-05-16T05:57:46;11.50;95.30
15355;DHT22;7777;52.254;9.618;2023-05-16T06:00:12;11.50;95.40
15355;DHT22;7777;52.254;9.618;2023-05-16T06:02:40;11.50;95.30
15355;DHT22;7777;52.254;9.618;2023-05-16T06:05:06;11.40;95.20
15355;DHT22;7777;52.254;9.618;2023-05-16T06:07:32;11.40;95.10
15355;DHT22;7777;52.254;9.618;2023-05-16T06:09:58;11.40;95.10
15355;DHT22;7777;52.254;9.618;2023-05-16T06:12:28;11.40;95.10
15355;DHT22;7777;52.254;9.618;2023-05-16T06:14:54;11.50;95.20
15355;DHT22;7777;52.254;9.618;2023-05-16T06:17:20;11.50;95.20
15355;DHT22;7777;52.254;9.618;2023-05-16T06:19:46;11.50;95.30
15355;DHT22;7777;52.254;9.618;2023-05-16T06:22:12;11.50;95.20
15355;DHT22;7777;52.254;9.618;2023-05-16T06:24:38;11.50;95.50
15355;DHT22;7777;52.254;9.618;2023-05-16T06:27:04;11.50;95.40
15355;DHT22;7777;52.254;9.618;2023-05-16T06:29:30;11.50;95.20
15355;DHT22;7777;52.254;9.618;2023-05-16T06:31:56;11.50;95.20
15355;DHT22;7777;52.254;9.618;2023-05-16T06:45:19;11.70;95.30
15355;DHT22;7777;52.254;9.618;2023-05-16T06:47:48;11.70;95.30
15355;DHT22;7777;52.254;9.618;2023-05-16T06:50:14;11.70;95.20
15355;DHT22;7777;52.254;9.618;2023-05-16T06:52:40;11.80;95.20
15355;DHT22;7777;52.254;9.618;2023-05-16T06:55:06;11.80;95.10
15355;DHT22;7777;52.254;9.618;2023-05-16T06:57:32;11.80;95.10
15355;DHT22;7777;52.254;9.618;2023-05-16T06:59:58;11.80;95.10
15355;DHT22;7777;52.254;9.618;2023-05-16T07:02:24;11.80;95.00
15355;DHT22;7777;52.254;9.618;2023-05-16T07:04:52;11.80;94.90
15355;DHT22;7777;52.254;9.618;2023-05-16T07:07:18;11.80;94.90
15355;DHT22;7777;52.254;9.618;2023-05-16T07:09:44;11.80;95.00
15355;DHT22;7777;52.254;9.618;2023-05-16T07:12:13;11.80;95.00
15355;DHT22;7777;52.254;9.618;2023-05-16T07:14:40;11.80;95.00
15355;DHT22;7777;52.254;9.618;2023-05-16T07:17:08;11.90;95.10
15355;DHT22;7777;52.254;9.618;2023-05-16T07:19:34;11.90;95.00
15355;DHT22;7777;52.254;9.618;2023-05-16T07:22:03;12.00;95.00
15355;DHT22;7777;52.254;9.618;2023-05-16T07:24:29;12.00;95.00
15355;DHT22;7777;52.254;9.618;2023-05-16T07:26:56;12.10;94.90
15355;DHT22;7777;52.254;9.618;2023-05-16T07:29:22;12.10;95.00
15355;DHT22;7777;52.254;9.618;2023-05-16T07:31:48;12.20;95.00
15355;DHT22;7777;52.254;9.618;2023-05-16T07:34:14;12.30;94.90
15355;DHT22;7777;52.254;9.618;2023-05-16T07:36:43;12.40;95.00
15355;DHT22;7777;52.254;9.618;2023-05-16T07:39:09;12.40;94.70
15355;DHT22;7777;52.254;9.618;2023-05-16T07:41:35;12.50;94.80
15355;DHT22;7777;52.254;9.618;2023-05-16T07:44:00;12.50;94.60
15355;DHT22;7777;52.254;9.618;2023-05-16T07:46:26;12.60;94.80
15355;DHT22;7777;52.254;9.618;2023-05-16T07:48:52;12.70;95.00
15355;DHT22;7777;52.254;9.618;2023-05-16T07:51:18;12.70;94.70
15355;DHT22;7777;52.254;9.618;2023-05-16T07:53:44;12.80;94.80
15355;DHT22;7777;52.254;9.618;2023-05-16T07:56:10;12.80;94.70
15355;DHT22;7777;52.254;9.618;2023-05-16T07:58:40;12.90;94.60
15355;DHT22;7777;52.254;9.618;2023-05-16T08:01:06;12.90;94.70
15355;DHT22;7777;52.254;9.618;2023-05-16T08:03:32;12.90;94.50
15355;DHT22;7777;52.254;9.618;2023-05-16T08:05:59;13.00;94.60
15355;DHT22;7777;52.254;9.618;2023-05-16T08:08:25;13.00;94.60
15355;DHT22;7777;52.254;9.618;2023-05-16T08:10:51;13.10;94.40
15355;DHT22;7777;52.254;9.618;2023-05-16T08:13:17;13.10;94.20
15355;DHT22;7777;52.254;9.618;2023-05-16T08:15:43;13.10;94.30
15355;DHT22;7777;52.254;9.618;2023-05-16T08:18:13;13.20;94.50
15355;DHT22;7777;52.254;9.618;2023-05-16T08:20:40;13.30;94.30
15355;DHT22;7777;52.254;9.618;2023-05-16T08:23:07;13.30;94.50
15355;DHT22;7777;52.254;9.618;2023-05-16T08:25:34;13.40;94.70
15355;DHT22;7777;52.254;9.618;2023-05-16T08:28:00;13.50;94.70
15355;DHT22;7777;52.254;9.618;2023-05-16T08:30:30;13.50;94.50
15355;DHT22;7777;52.254;9.618;2023-05-16T08:32:56;13.50;94.20
15355;DHT22;7777;52.254;9.618;2023-05-16T08:35:22;13.60;94.10
15355;DHT22;7777;52.254;9.618;2023-05-16T08:37:48;13.50;93.90
15355;DHT22;7777;52.254;9.618;2023-05-16T08:40:14;13.50;93.90
15355;DHT22;7777;52.254;9.618;2023-05-16T08:42:41;13.50;93.90
15355;DHT22;7777;52.254;9.618;2023-05-16T08:45:09;13.60;94.30
15355;DHT22;7777;52.254;9.618;2023-05-16T08:47:41;13.70;94.20
15355;DHT22;7777;52.254;9.618;2023-05-16T08:50:08;13.70;94.10
15355;DHT22;7777;52.254;9.618;2023-05-16T08:52:37;13.80;94.40
15355;DHT22;7777;52.254;9.618;2023-05-16T08:55:06;13.90;94.50
15355;DHT22;7777;52.254;9.618;2023-05-16T08:57:35;14.00;94.50
15355;DHT22;7777;52.254;9.618;2023-05-16T09:00:02;14.10;94.50
15355;DHT22;7777;52.254;9.618;2023-05-16T09:02:39;14.20;94.50
15355;DHT22;7777;52.254;9.618;2023-05-16T09:05:08;14.30;94.60
15355;DHT22;7777;52.254;9.618;2023-05-16T09:07:36;14.30;94.30
15355;DHT22;7777;52.254;9.618;2023-05-16T09:10:02;14.40;94.10
15355;DHT22;7777;52.254;9.618;2023-05-16T09:12:30;14.50;94.20
15355;DHT22;7777;52.254;9.618;2023-05-16T09:14:57;14.50;94.20
15355;DHT22;7777;52.254;9.618;2023-05-16T09:17:23;14.60;93.90
15355;DHT22;7777;52.254;9.618;2023-05-16T09:19:48;14.70;94.10
15355;DHT22;7777;52.254;9.618;2023-05-16T09:22:17;14.80;93.90
15355;DHT22;7777;52.254;9.618;2023-05-16T09:24:44;14.80;94.10
15355;DHT22;7777;52.254;9.618;2023-05-16T09:27:12;15.00;94.20
15355;DHT22;7777;52.254;9.618;2023-05-16T09:29:43;15.10;93.90
15355;DHT22;7777;52.254;9.618;2023-05-16T09:32:14;15.20;93.60
15355;DHT22;7777;52.254;9.618;2023-05-16T09:34:45;15.30;93.40
15355;DHT22;7777;52.254;9.618;2023-05-16T09:37:17;15.30;93.70
15355;DHT22;7777;52.254;9.618;2023-05-16T09:39:48;15.40;94.00
15355;DHT22;7777;52.254;9.618;2023-05-16T09:42:17;15.40;93.80
15355;DHT22;7777;52.254;9.618;2023-05-16T09:44:52;15.50;93.90
15355;DHT22;7777;52.254;9.618;2023-05-16T09:47:19;15.60;93.50
15355;DHT22;7777;52.254;9.618;2023-05-16T09:49:50;15.60;93.60
15355;DHT22;7777;52.254;9.618;2023-05-16T09:52:17;15.70;93.40
15355;DHT22;7777;52.254;9.618;2023-05-16T09:54:45;15.80;93.40
15355;DHT22;7777;52.254;9.618;2023-05-16T09:57:18;15.80;93.60
15355;DHT22;7777;52.254;9.618;2023-05-16T09:59:46;15.80;93.50
15355;DHT22;7777;52.254;9.618;2023-05-16T10:02:12;15.90;93.60
15355;DHT22;7777;52.254;9.618;2023-05-16T10:04:38;16.00;93.80
15355;DHT22;7777;52.254;9.618;2023-05-16T10:07:05;16.10;93.70
15355;DHT22;7777;52.254;9.618;2023-05-16T10:09:35;16.10;93.60
15355;DHT22;7777;52.254;9.618;2023-05-16T10:12:07;16.20;92.60
15355;DHT22;7777;52.254;9.618;2023-05-16T10:14:35;16.20;93.10
15355;DHT22;7777;52.254;9.618;2023-05-16T10:17:06;16.20;93.10
15355;DHT22;7777;52.254;9.618;2023-05-16T10:19:37;16.20;92.70
15355;DHT22;7777;52.254;9.618;2023-05-16T10:22:05;16.20;92.70
15355;DHT22;7777;52.254;9.618;2023-05-16T10:28:01;16.30;92.40
15355;DHT22;7777;52.254;9.618;2023-05-16T10:30:28;16.40;92.40
15355;DHT22;7777;52.254;9.618;2023-05-16T10:32:56;16.50;92.30
15355;DHT22;7777;52.254;9.618;2023-05-16T10:35:22;16.60;92.30
15355;DHT22;7777;52.254;9.618;2023-05-16T10:37:49;16.70;92.10
15355;DHT22;7777;52.254;9.618;2023-05-16T10:40:16;16.80;92.00
15355;DHT22;7777;52.254;9.618;2023-05-16T10:42:57;16.90;92.30
15355;DHT22;7777;52.254;9.618;2023-05-16T10:45:24;17.10;92.00
15355;DHT22;7777;52.254;9.618;2023-05-16T10:47:51;17.20;91.90
15355;DHT22;7777;52.254;9.618;2023-05-16T10:53:20;17.40;92.10
15355;DHT22;7777;52.254;9.618;2023-05-16T11:01:29;17.70;91.80
15355;DHT22;7777;52.254;9.618;2023-05-16T11:03:59;17.80;92.00
15355;DHT22;7777;52.254;9.618;2023-05-16T11:06:44;17.90;92.10
15355;DHT22;7777;52.254;9.618;2023-05-16T11:14:34;17.90;91.20
15355;DHT22;7777;52.254;9.618;2023-05-16T11:17:14;17.80;90.50
15355;DHT22;7777;52.254;9.618;2023-05-16T11:19:46;17.70;90.80
15355;DHT22;7777;52.254;9.618;2023-05-16T11:22:20;17.70;91.30
15355;DHT22;7777;52.254;9.618;2023-05-16T11:27:35;17.70;91.70
15355;DHT22;7777;52.254;9.618;2023-05-16T11:30:14;17.80;91.80
15355;DHT22;7777;52.254;9.618;2023-05-16T11:32:43;17.90;91.90
15355;DHT22;7777;52.254;9.618;2023-05-16T11:35:19;18.00;91.80
15355;DHT22;7777;52.254;9.618;2023-05-16T11:37:46;18.00;91.90
15355;DHT22;7777;52.254;9.618;2023-05-16T11:40:12;18.10;92.10
15355;DHT22;7777;52.254;9.618;2023-05-16T11:42:43;18.10;91.90
15355;DHT22;7777;52.254;9.618;2023-05-16T11:45:17;18.20;91.70
15355;DHT22;7777;52.254;9.618;2023-05-16T11:47:46;18.20;91.60
15355;DHT22;7777;52.254;9.618;2023-05-16T11:50:22;18.30;91.70
15355;DHT22;7777;52.254;9.618;2023-05-16T11:52:50;18.40;92.20
15355;DHT22;7777;52.254;9.618;2023-05-16T11:55:19;18.40;91.00
15355;DHT22;7777;52.254;9.618;2023-05-16T11:57:50;18.50;90.90
15355;DHT22;7777;52.254;9.618;2023-05-16T12:00:20;18.50;90.90
15355;DHT22;7777;52.254;9.618;2023-05-16T12:02:49;18.60;91.80
15355;DHT22;7777;52.254;9.618;2023-05-16T12:05:16;18.70;91.70
15355;DHT22;7777;52.254;9.618;2023-05-16T12:07:49;18.80;91.30
15355;DHT22;7777;52.254;9.618;2023-05-16T12:10:16;19.00;90.90
15355;DHT22;7777;52.254;9.618;2023-05-16T12:12:47;19.00;91.00
15355;DHT22;7777;52.254;9.618;2023-05-16T12:15:14;19.10;90.60
15355;DHT22;7777;52.254;9.618;2023-05-16T12:17:40;19.20;91.50
15355;DHT22;7777;52.254;9.618;2023-05-16T12:20:08;19.30;90.90
15355;DHT22;7777;52.254;9.618;2023-05-16T12:22:43;19.40;90.40
15355;DHT22;7777;52.254;9.618;2023-05-16T12:25:31;19.40;90.30
15355;DHT22;7777;52.254;9.618;2023-05-16T12:28:01;19.60;91.00
15355;DHT22;7777;52.254;9.618;2023-05-16T12:30:30;19.70;91.20
15355;DHT22;7777;52.254;9.618;2023-05-16T12:33:08;19.80;90.80
15355;DHT22;7777;52.254;9.618;2023-05-16T12:35:37;19.80;90.00
15355;DHT22;7777;52.254;9.618;2023-05-16T12:38:05;19.90;89.40
15355;DHT22;7777;52.254;9.618;2023-05-16T12:40:32;19.90;90.20
15355;DHT22;7777;52.254;9.618;2023-05-16T12:42:58;20.00;90.70
15355;DHT22;7777;52.254;9.618;2023-05-16T12:45:26;20.00;89.40
15355;DHT22;7777;52.254;9.618;2023-05-16T12:47:52;19.90;88.60
15355;DHT22;7777;52.254;9.618;2023-05-16T12:50:18;19.80;88.70
15355;DHT22;7777;52.254;9.618;2023-05-16T12:52:51;19.60;88.40
15355;DHT22;7777;52.254;9.618;2023-05-16T12:55:19;19.40;87.90
15355;DHT22;7777;52.254;9.618;2023-05-16T12:57:47;19.20;86.30
15355;DHT22;7777;52.254;9.618;2023-05-16T13:00:15;19.10;87.30
15355;DHT22;7777;52.254;9.618;2023-05-16T13:02:48;18.90;86.80
15355;DHT22;7777;52.254;9.618;2023-05-16T13:05:14;18.70;87.70
15355;DHT22;7777;52.254;9.618;2023-05-16T13:07:40;18.60;88.10
15355;DHT22;7777;52.254;9.618;2023-05-16T13:10:09;18.60;88.70
15355;DHT22;7777;52.254;9.618;2023-05-16T13:12:39;18.60;89.50
15355;DHT22;7777;52.254;9.618;2023-05-16T13:15:07;18.60;89.50
15355;DHT22;7777;52.254;9.618;2023-05-16T13:17:34;18.70;89.20
15355;DHT22;7777;52.254;9.618;2023-05-16T13:20:00;18.90;89.10
15355;DHT22;7777;52.254;9.618;2023-05-16T13:22:27;18.90;88.30
15355;DHT22;7777;52.254;9.618;2023-05-16T13:24:53;19.00;88.60
15355;DHT22;7777;52.254;9.618;2023-05-16T13:27:19;19.10;88.00
15355;DHT22;7777;52.254;9.618;2023-05-16T13:29:45;19.20;88.70
15355;DHT22;7777;52.254;9.618;2023-05-16T13:32:11;19.20;87.70
15355;DHT22;7777;52.254;9.618;2023-05-16T13:34:36;19.30;87.20
15355;DHT22;7777;52.254;9.618;2023-05-16T13:37:05;19.20;86.30
15355;DHT22;7777;52.254;9.618;2023-05-16T13:39:30;19.20;85.50
15355;DHT22;7777;52.254;9.618;2023-05-16T13:41:56;19.10;86.30
15355;DHT22;7777;52.254;9.618;2023-05-16T13:44:23;19.00;85.70
15355;DHT22;7777;52.254;9.618;2023-05-16T13:46:51;18.90;85.30
15355;DHT22;7777;52.254;9.618;2023-05-16T13:49:17;18.70;85.90
15355;DHT22;7777;52.254;9.618;2023-05-16T13:51:43;18.60;85.70
15355;DHT22;7777;52.254;9.618;2023-05-16T13:54:09;18.60;85.70
15355;DHT22;7777;52.254;9.618;2023-05-16T13:56:35;18.50;86.30
15355;DHT22;7777;52.254;9.618;2023-05-16T13:59:01;18.50;86.10
15355;DHT22;7777;52.254;9.618;2023-05-16T14:01:26;18.50;86.70
15355;DHT22;7777;52.254;9.618;2023-05-16T14:03:52;18.50;86.30
15355;DHT22;7777;52.254;9.618;2023-05-16T14:06:18;18.50;86.20
15355;DHT22;7777;52.254;9.618;2023-05-16T14:08:43;18.50;86.80
15355;DHT22;7777;52.254;9.618;2023-05-16T14:11:10;18.50;86.30
15355;DHT22;7777;52.254;9.618;2023-05-16T14:13:35;18.50;86.80
15355;DHT22;7777;52.254;9.618;2023-05-16T14:16:01;18.40;86.90
15355;DHT22;7777;52.254;9.618;2023-05-16T14:18:27;18.40;86.90
15355;DHT22;7777;52.254;9.618;2023-05-16T14:20:52;18.30;84.60
15355;DHT22;7777;52.254;9.618;2023-05-16T14:23:20;18.20;84.70
15355;DHT22;7777;52.254;9.618;2023-05-16T14:25:47;18.10;84.30
15355;DHT22;7777;52.254;9.618;2023-05-16T14:28:13;17.90;83.80
15355;DHT22;7777;52.254;9.618;2023-05-16T14:30:38;17.70;84.20
15355;DHT22;7777;52.254;9.618;2023-05-16T14:33:04;17.70;84.50
15355;DHT22;7777;52.254;9.618;2023-05-16T14:35:31;17.60;84.80
15355;DHT22;7777;52.254;9.618;2023-05-16T14:37:57;17.40;85.10
15355;DHT22;7777;52.254;9.618;2023-05-16T14:40:23;17.30;84.60
15355;DHT22;7777;52.254;9.618;2023-05-16T14:42:51;17.30;85.70
15355;DHT22;7777;52.254;9.618;2023-05-16T14:45:16;17.20;85.70
15355;DHT22;7777;52.254;9.618;2023-05-16T14:47:42;17.10;85.90
15355;DHT22;7777;52.254;9.618;2023-05-16T14:50:08;17.10;85.90
15355;DHT22;7777;52.254;9.618;2023-05-16T14:52:38;17.00;85.90
15355;DHT22;7777;52.254;9.618;2023-05-16T14:55:05;17.00;86.20
15355;DHT22;7777;52.254;9.618;2023-05-16T14:57:31;17.00;86.30
15355;DHT22;7777;52.254;9.618;2023-05-16T14:59:57;16.90;85.70
15355;DHT22;7777;52.254;9.618;2023-05-16T15:02:23;16.90;85.50
15355;DHT22;7777;52.254;9.618;2023-05-16T15:04:55;16.90;85.90
15355;DHT22;7777;52.254;9.618;2023-05-16T15:07:27;16.90;85.80
15355;DHT22;7777;52.254;9.618;2023-05-16T15:09:53;16.90;85.70
15355;DHT22;7777;52.254;9.618;2023-05-16T15:12:20;16.90;85.80
15355;DHT22;7777;52.254;9.618;2023-05-16T15:14:46;16.90;85.70
15355;DHT22;7777;52.254;9.618;2023-05-16T15:17:12;16.80;85.20
15355;DHT22;7777;52.254;9.618;2023-05-16T15:19:37;16.80;85.70
15355;DHT22;7777;52.254;9.618;2023-05-16T15:22:03;16.80;85.80
15355;DHT22;7777;52.254;9.618;2023-05-16T15:24:32;16.70;86.10
15355;DHT22;7777;52.254;9.618;2023-05-16T15:26:58;16.70;86.20
15355;DHT22;7777;52.254;9.618;2023-05-16T15:29:24;16.70;86.20
15355;DHT22;7777;52.254;9.618;2023-05-16T15:31:50;16.70;86.10
15355;DHT22;7777;52.254;9.618;2023-05-16T15:34:16;16.70;86.50
15355;DHT22;7777;52.254;9.618;2023-05-16T15:36:42;16.60;87.00
15355;DHT22;7777;52.254;9.618;2023-05-16T15:39:07;16.60;86.40
15355;DHT22;7777;52.254;9.618;2023-05-16T15:41:33;16.60;86.10
15355;DHT22;7777;52.254;9.618;2023-05-16T15:44:07;16.50;85.10
15355;DHT22;7777;52.254;9.618;2023-05-16T15:47:04;16.50;85.20
15355;DHT22;7777;52.254;9.618;2023-05-16T15:49:30;16.50;85.50
15355;DHT22;7777;52.254;9.618;2023-05-16T15:51:56;16.50;85.30
15355;DHT22;7777;52.254;9.618;2023-05-16T15:54:22;16.40;85.10
15355;DHT22;7777;52.254;9.618;2023-05-16T15:56:48;16.40;84.30
15355;DHT22;7777;52.254;9.618;2023-05-16T15:59:21;16.40;84.10
15355;DHT22;7777;52.254;9.618;2023-05-16T16:01:46;16.30;83.80
15355;DHT22;7777;52.254;9.618;2023-05-16T16:04:12;16.30;83.80
15355;DHT22;7777;52.254;9.618;2023-05-16T16:06:38;16.20;84.30
15355;DHT22;7777;52.254;9.618;2023-05-16T16:09:29;16.20;83.80
15355;DHT22;7777;52.254;9.618;2023-05-16T16:12:01;16.10;84.10
15355;DHT22;7777;52.254;9.618;2023-05-16T16:14:28;16.10;84.60
15355;DHT22;7777;52.254;9.618;2023-05-16T16:16:54;16.10;84.50
15355;DHT22;7777;52.254;9.618;2023-05-16T16:19:20;16.10;84.70
15355;DHT22;7777;52.254;9.618;2023-05-16T16:21:46;16.00;85.10
15355;DHT22;7777;52.254;9.618;2023-05-16T16:24:11;16.00;85.00
15355;DHT22;7777;52.254;9.618;2023-05-16T16:26:37;16.00;85.20
15355;DHT22;7777;52.254;9.618;2023-05-16T16:29:03;16.00;85.50
15355;DHT22;7777;52.254;9.618;2023-05-16T16:31:30;16.00;85.70
15355;DHT22;7777;52.254;9.618;2023-05-16T16:33:56;16.00;85.90
15355;DHT22;7777;52.254;9.618;2023-05-16T16:36:22;15.90;86.00
15355;DHT22;7777;52.254;9.618;2023-05-16T16:38:47;15.90;86.10
15355;DHT22;7777;52.254;9.618;2023-05-16T16:41:13;15.90;86.00
15355;DHT22;7777;52.254;9.618;2023-05-16T16:43:39;15.90;86.30
15355;DHT22;7777;52.254;9.618;2023-05-16T16:46:06;15.90;86.20
15355;DHT22;7777;52.254;9.618;2023-05-16T16:48:32;15.80;86.30
15355;DHT22;7777;52.254;9.618;2023-05-16T16:51:02;15.80;86.50
15355;DHT22;7777;52.254;9.618;2023-05-16T16:53:28;15.80;86.50
15355;DHT22;7777;52.254;9.618;2023-05-16T16:55:54;15.80;86.60
15355;DHT22;7777;52.254;9.618;2023-05-16T16:58:20;15.70;86.50
15355;DHT22;7777;52.254;9.618;2023-05-16T17:00:46;15.70;85.90
15355;DHT22;7777;52.254;9.618;2023-05-16T17:03:15;15.60;85.10
15355;DHT22;7777;52.254;9.618;2023-05-16T17:05:43;15.60;85.40
15355;DHT22;7777;52.254;9.618;2023-05-16T17:08:15;15.50;85.60
15355;DHT22;7777;52.254;9.618;2023-05-16T17:10:41;15.50;85.20
15355;DHT22;7777;52.254;9.618;2023-05-16T17:13:07;15.40;85.00
15355;DHT22;7777;52.254;9.618;2023-05-16T17:15:45;15.40;84.80
15355;DHT22;7777;52.254;9.618;2023-05-16T17:18:12;15.30;85.20
15355;DHT22;7777;52.254;9.618;2023-05-16T17:20:38;15.30;85.10
15355;DHT22;7777;52.254;9.618;2023-05-16T17:23:04;15.20;85.20
15355;DHT22;7777;52.254;9.618;2023-05-16T17:25:30;15.20;84.90
15355;DHT22;7777;52.254;9.618;2023-05-16T17:27:56;15.10;85.10
15355;DHT22;7777;52.254;9.618;2023-05-16T17:30:30;15.10;84.90
15355;DHT22;7777;52.254;9.618;2023-05-16T17:33:03;15.10;84.80
15355;DHT22;7777;52.254;9.618;2023-05-16T17:35:28;15.00;85.10
15355;DHT22;7777;52.254;9.618;2023-05-16T17:37:55;15.00;85.00